createdAt,value
2019-02-23T00:00:18.822Z,0.00
2019-02-23T00:01:18.810Z,0.00
2019-02-23T00:02:18.799Z,0.00
2019-02-23T00:03:18.793Z,0.00
2019-02-23T00:04:18.788Z,0.00
2019-02-23T00:05:18.781Z,0.00
2019-02-23T00:06:28.990Z,0.00
2019-02-23T00:07:19.746Z,0.00
2019-02-23T00:08:18.737Z,0.00
2019-02-23T00:09:18.726Z,0.00
2019-02-23T00:10:18.716Z,0.00
2019-02-23T00:11:18.717Z,0.00
2019-02-23T00:12:18.694Z,0.00
2019-02-23T00:13:18.684Z,0.00
2019-02-23T00:14:18.677Z,0.00
2019-02-23T00:15:18.664Z,0.00
2019-02-23T00:16:18.655Z,0.00
2019-02-23T00:17:18.655Z,0.00
2019-02-23T00:18:18.632Z,0.00
2019-02-23T00:19:24.844Z,0.00
2019-02-23T00:20:19.610Z,0.00
2019-02-23T00:21:18.616Z,0.00
2019-02-23T00:22:18.590Z,0.00
2019-02-23T00:23:18.590Z,0.00
2019-02-23T00:24:18.568Z,0.00
2019-02-23T00:25:18.558Z,0.00
2019-02-23T00:26:18.547Z,0.00
2019-02-23T00:27:18.536Z,0.00
2019-02-23T00:28:18.525Z,0.00
2019-02-23T00:29:18.533Z,0.00
2019-02-23T00:30:18.505Z,0.00
2019-02-23T00:31:18.501Z,0.00
2019-02-23T00:32:18.486Z,0.00
2019-02-23T00:33:18.473Z,0.00
2019-02-23T00:34:18.465Z,0.00
2019-02-23T00:35:18.470Z,0.00
2019-02-23T00:36:18.446Z,0.00
2019-02-23T00:37:18.429Z,0.00
2019-02-23T00:38:18.419Z,0.00
2019-02-23T00:39:18.409Z,0.00
2019-02-23T00:40:18.397Z,0.00
2019-02-23T00:41:18.397Z,0.00
2019-02-23T00:42:18.375Z,0.00
2019-02-23T00:43:18.368Z,0.00
2019-02-23T00:44:18.354Z,0.00
2019-02-23T00:45:18.346Z,0.00
2019-02-23T00:46:18.334Z,0.00
2019-02-23T00:47:18.340Z,0.00
2019-02-23T00:48:18.314Z,0.00
2019-02-23T00:49:18.302Z,0.00
2019-02-23T00:50:18.291Z,0.00
2019-02-23T00:51:18.318Z,0.00
2019-02-23T00:52:18.270Z,0.00
2019-02-23T00:53:18.273Z,0.00
2019-02-23T00:54:18.250Z,0.00
2019-02-23T00:55:18.237Z,0.00
2019-02-23T00:56:18.227Z,0.00
2019-02-23T00:57:18.222Z,0.00
2019-02-23T00:58:18.203Z,0.00
2019-02-23T00:59:18.207Z,0.00
2019-02-23T01:00:18.183Z,0.00
2019-02-23T01:01:18.171Z,0.00
2019-02-23T01:02:18.161Z,0.00
2019-02-23T01:03:18.150Z,0.00
2019-02-23T01:04:18.139Z,0.00
2019-02-23T01:05:18.140Z,0.00
2019-02-23T01:06:18.117Z,0.00
2019-02-23T01:07:18.106Z,0.00
2019-02-23T01:08:18.095Z,0.00
2019-02-23T01:09:18.084Z,0.00
2019-02-23T01:10:19.577Z,0.00
2019-02-23T01:11:18.075Z,0.00
2019-02-23T01:12:18.054Z,0.00
2019-02-23T01:13:18.040Z,0.00
2019-02-23T01:14:18.031Z,0.00
2019-02-23T01:15:18.018Z,0.00
2019-02-23T01:16:18.008Z,0.00
2019-02-23T01:17:18.016Z,0.00
2019-02-23T01:18:17.991Z,0.00
2019-02-23T01:19:17.975Z,0.00
2019-02-23T01:20:17.965Z,0.00
2019-02-23T01:21:18.026Z,0.00
2019-02-23T01:22:17.942Z,0.00
2019-02-23T01:23:17.944Z,0.00
2019-02-23T01:24:17.921Z,0.00
2019-02-23T01:25:17.910Z,0.00
2019-02-23T01:26:17.899Z,0.00
2019-02-23T01:27:17.887Z,0.00
2019-02-23T01:28:17.880Z,0.00
2019-02-23T01:29:17.877Z,0.00
2019-02-23T01:30:17.856Z,0.00
2019-02-23T01:31:17.845Z,0.00
2019-02-23T01:32:17.835Z,0.00
2019-02-23T01:33:17.883Z,0.00
2019-02-23T01:34:17.812Z,0.00
2019-02-23T01:35:17.831Z,0.00
2019-02-23T01:36:17.795Z,0.00
2019-02-23T01:37:17.782Z,0.00
2019-02-23T01:38:17.769Z,0.00
2019-02-23T01:39:17.757Z,0.00
2019-02-23T01:40:17.748Z,0.00
2019-02-23T01:41:17.746Z,0.00
2019-02-23T01:42:17.794Z,0.00
2019-02-23T01:43:17.714Z,0.00
2019-02-23T01:44:17.704Z,0.00
2019-02-23T01:45:17.692Z,0.00
2019-02-23T01:46:17.681Z,0.00
2019-02-23T01:47:17.682Z,0.00
2019-02-23T01:48:17.660Z,0.00
2019-02-23T01:49:17.648Z,0.00
2019-02-23T01:50:17.637Z,0.00
2019-02-23T01:51:17.627Z,0.00
2019-02-23T01:52:17.616Z,0.00
2019-02-23T01:53:17.615Z,0.00
2019-02-23T01:54:17.594Z,0.00
2019-02-23T01:55:17.583Z,0.00
2019-02-23T01:56:17.573Z,0.00
2019-02-23T01:57:17.570Z,0.00
2019-02-23T01:58:17.552Z,0.00
2019-02-23T01:59:17.559Z,0.00
2019-02-23T02:00:17.529Z,0.00
2019-02-23T02:01:17.519Z,0.00
2019-02-23T02:02:17.565Z,0.00
2019-02-23T02:03:17.501Z,0.00
2019-02-23T02:04:17.487Z,0.00
2019-02-23T02:05:17.488Z,0.00
2019-02-23T02:06:17.466Z,0.00
2019-02-23T02:07:17.453Z,0.00
2019-02-23T02:08:17.442Z,0.00
2019-02-23T02:09:17.435Z,0.00
2019-02-23T02:10:17.426Z,0.00
2019-02-23T02:11:17.421Z,0.00
2019-02-23T02:12:17.398Z,0.00
2019-02-23T02:13:17.388Z,0.00
2019-02-23T02:14:17.376Z,0.00
2019-02-23T02:15:17.366Z,0.00
2019-02-23T02:16:17.354Z,0.00
2019-02-23T02:17:17.357Z,0.00
2019-02-23T02:18:17.333Z,0.00
2019-02-23T02:19:17.323Z,0.00
2019-02-23T02:20:17.312Z,0.00
2019-02-23T02:21:17.306Z,0.00
2019-02-23T02:22:17.330Z,0.00
2019-02-23T02:23:17.296Z,0.00
2019-02-23T02:24:17.268Z,0.00
2019-02-23T02:25:17.258Z,0.00
2019-02-23T02:26:17.249Z,0.00
2019-02-23T02:27:17.238Z,0.00
2019-02-23T02:28:17.237Z,0.00
2019-02-23T02:29:17.248Z,0.00
2019-02-23T02:30:17.204Z,0.00
2019-02-23T02:31:17.196Z,0.00
2019-02-23T02:32:17.183Z,0.00
2019-02-23T02:33:17.177Z,0.00
2019-02-23T02:34:17.175Z,0.00
2019-02-23T02:35:17.160Z,0.00
2019-02-23T02:36:17.139Z,0.00
2019-02-23T02:37:17.132Z,0.00
2019-02-23T02:38:17.116Z,0.00
2019-02-23T02:39:17.105Z,0.00
2019-02-23T02:40:17.108Z,0.00
2019-02-23T02:41:17.098Z,0.00
2019-02-23T02:42:17.073Z,0.00
2019-02-23T02:43:17.062Z,0.00
2019-02-23T02:44:17.051Z,0.00
2019-02-23T02:45:17.043Z,0.00
2019-02-23T02:46:17.030Z,0.00
2019-02-23T02:47:17.032Z,0.00
2019-02-23T02:48:17.009Z,0.00
2019-02-23T02:49:16.997Z,0.00
2019-02-23T02:50:24.221Z,0.00
2019-02-23T02:51:17.979Z,0.00
2019-02-23T02:52:16.964Z,0.00
2019-02-23T02:53:16.971Z,0.00
2019-02-23T02:54:16.943Z,0.00
2019-02-23T02:55:16.932Z,0.00
2019-02-23T02:56:16.928Z,0.00
2019-02-23T02:57:16.910Z,0.00
2019-02-23T02:58:16.898Z,0.00
2019-02-23T02:59:16.900Z,0.00
2019-02-23T03:00:16.877Z,0.00
2019-02-23T03:01:16.865Z,0.00
2019-02-23T03:02:16.855Z,0.00
2019-02-23T03:03:16.847Z,0.00
2019-02-23T03:04:16.833Z,0.00
2019-02-23T03:05:16.835Z,0.00
2019-02-23T03:06:16.812Z,0.00
2019-02-23T03:07:16.801Z,0.00
2019-02-23T03:08:16.798Z,0.00
2019-02-23T03:09:16.778Z,0.00
2019-02-23T03:10:16.769Z,0.00
2019-02-23T03:11:16.770Z,0.00
2019-02-23T03:12:16.745Z,0.00
2019-02-23T03:13:16.807Z,0.00
2019-02-23T03:14:16.725Z,0.00
2019-02-23T03:15:16.715Z,0.00
2019-02-23T03:16:16.702Z,0.00
2019-02-23T03:17:16.704Z,0.00
2019-02-23T03:18:16.682Z,0.00
2019-02-23T03:19:16.669Z,0.00
2019-02-23T03:20:16.661Z,0.00
2019-02-23T03:21:16.647Z,0.00
2019-02-23T03:22:16.636Z,0.00
2019-02-23T03:23:16.713Z,0.00
2019-02-23T03:24:16.614Z,0.00
2019-02-23T03:25:16.608Z,0.00
2019-02-23T03:26:16.595Z,0.00
2019-02-23T03:27:16.583Z,0.00
2019-02-23T03:28:16.572Z,0.00
2019-02-23T03:29:16.574Z,0.00
2019-02-23T03:30:16.557Z,0.00
2019-02-23T03:31:16.617Z,0.00
2019-02-23T03:32:16.532Z,0.00
2019-02-23T03:33:16.519Z,0.00
2019-02-23T03:34:16.508Z,0.00
2019-02-23T03:35:16.511Z,0.00
2019-02-23T03:36:16.487Z,0.00
2019-02-23T03:37:16.478Z,0.00
2019-02-23T03:38:16.464Z,0.00
2019-02-23T03:39:16.458Z,0.00
2019-02-23T03:40:16.442Z,0.00
2019-02-23T03:41:16.445Z,0.00
2019-02-23T03:42:16.422Z,0.00
2019-02-23T03:43:16.413Z,0.00
2019-02-23T03:44:16.399Z,0.00
2019-02-23T03:45:16.391Z,0.00
2019-02-23T03:46:16.377Z,0.00
2019-02-23T03:47:16.379Z,0.00
2019-02-23T03:48:16.356Z,0.00
2019-02-23T03:49:16.345Z,0.00
2019-02-23T03:50:16.333Z,0.00
2019-02-23T03:51:16.323Z,0.00
2019-02-23T03:52:16.312Z,0.00
2019-02-23T03:53:16.323Z,0.00
2019-02-23T03:54:16.294Z,0.00
2019-02-23T03:55:16.307Z,0.00
2019-02-23T03:56:16.270Z,0.00
2019-02-23T03:57:16.257Z,0.00
2019-02-23T03:58:16.246Z,0.00
2019-02-23T03:59:16.249Z,0.00
2019-02-23T04:00:16.224Z,0.00
2019-02-23T04:01:16.214Z,0.00
2019-02-23T04:02:16.208Z,0.00
2019-02-23T04:03:16.193Z,0.00
2019-02-23T04:04:16.182Z,0.00
2019-02-23T04:05:16.182Z,0.00
2019-02-23T04:06:16.164Z,0.00
2019-02-23T04:07:16.151Z,0.00
2019-02-23T04:08:16.149Z,0.00
2019-02-23T04:09:16.130Z,0.00
2019-02-23T04:10:16.119Z,0.00
2019-02-23T04:11:16.118Z,0.00
2019-02-23T04:12:16.098Z,0.00
2019-02-23T04:13:16.087Z,0.00
2019-02-23T04:14:16.076Z,0.00
2019-02-23T04:15:16.066Z,0.00
2019-02-23T04:16:16.057Z,0.00
2019-02-23T04:17:16.063Z,0.00
2019-02-23T04:18:16.039Z,0.00
2019-02-23T04:19:16.024Z,0.00
2019-02-23T04:20:16.014Z,0.00
2019-02-23T04:21:16.003Z,0.00
2019-02-23T04:22:15.992Z,0.00
2019-02-23T04:23:15.993Z,0.00
2019-02-23T04:24:15.971Z,0.00
2019-02-23T04:25:15.959Z,0.00
2019-02-23T04:26:15.951Z,0.00
2019-02-23T04:27:15.940Z,0.00
2019-02-23T04:28:15.927Z,0.00
2019-02-23T04:29:15.927Z,0.00
2019-02-23T04:30:15.906Z,0.00
2019-02-23T04:31:15.911Z,0.00
2019-02-23T04:32:15.885Z,0.00
2019-02-23T04:33:15.878Z,0.00
2019-02-23T04:34:15.862Z,0.00
2019-02-23T04:35:15.887Z,0.00
2019-02-23T04:36:15.842Z,0.00
2019-02-23T04:37:15.831Z,0.00
2019-02-23T04:38:15.821Z,0.00
2019-02-23T04:39:15.809Z,0.00
2019-02-23T04:40:15.800Z,0.00
2019-02-23T04:41:15.810Z,0.00
2019-02-23T04:42:15.779Z,0.00
2019-02-23T04:43:15.775Z,0.00
2019-02-23T04:44:15.758Z,0.00
2019-02-23T04:45:15.747Z,0.00
2019-02-23T04:46:15.735Z,0.00
2019-02-23T04:47:15.743Z,0.00
2019-02-23T04:48:15.716Z,0.00
2019-02-23T04:49:15.703Z,0.00
2019-02-23T04:50:15.693Z,0.00
2019-02-23T04:51:15.683Z,0.00
2019-02-23T04:52:15.679Z,0.00
2019-02-23T04:53:15.674Z,0.00
2019-02-23T04:54:15.651Z,0.00
2019-02-23T04:55:15.641Z,0.00
2019-02-23T04:56:15.631Z,0.00
2019-02-23T04:57:15.620Z,0.00
2019-02-23T04:58:15.609Z,0.00
2019-02-23T04:59:15.609Z,0.00
2019-02-23T05:00:15.590Z,0.00
2019-02-23T05:01:15.579Z,0.00
2019-02-23T05:02:15.576Z,0.00
2019-02-23T05:03:15.557Z,0.00
2019-02-23T05:04:15.546Z,0.00
2019-02-23T05:05:15.551Z,0.00
2019-02-23T05:06:15.525Z,0.00
2019-02-23T05:07:15.523Z,0.00
2019-02-23T05:08:15.505Z,0.00
2019-02-23T05:09:15.504Z,0.00
2019-02-23T05:10:15.485Z,0.00
2019-02-23T05:11:15.484Z,0.00
2019-02-23T05:12:15.594Z,0.00
2019-02-23T05:13:15.461Z,0.00
2019-02-23T05:14:15.445Z,0.00
2019-02-23T05:15:15.431Z,0.00
2019-02-23T05:16:15.421Z,0.00
2019-02-23T05:17:15.422Z,0.00
2019-02-23T05:18:15.400Z,0.00
2019-02-23T05:19:15.390Z,0.00
2019-02-23T05:20:15.378Z,0.00
2019-02-23T05:21:25.994Z,0.00
2019-02-23T05:22:16.371Z,0.00
2019-02-23T05:23:15.348Z,0.00
2019-02-23T05:24:15.338Z,0.00
2019-02-23T05:25:15.332Z,0.00
2019-02-23T05:26:15.323Z,0.00
2019-02-23T05:27:15.313Z,0.00
2019-02-23T05:28:15.310Z,0.00
2019-02-23T05:29:15.285Z,0.00
2019-02-23T05:30:15.275Z,0.00
2019-02-23T05:31:15.264Z,0.00
2019-02-23T05:32:15.255Z,0.00
2019-02-23T05:33:15.246Z,0.00
2019-02-23T05:34:15.250Z,0.00
2019-02-23T05:35:15.224Z,0.00
2019-02-23T05:36:15.213Z,0.00
2019-02-23T05:37:15.204Z,0.00
2019-02-23T05:38:15.217Z,0.00
2019-02-23T05:39:17.774Z,0.00
2019-02-23T05:40:15.182Z,0.00
2019-02-23T05:41:15.160Z,0.00
2019-02-23T05:42:15.150Z,0.00
2019-02-23T05:43:15.162Z,0.00
2019-02-23T05:44:15.129Z,0.00
2019-02-23T05:45:15.124Z,0.00
2019-02-23T05:46:15.119Z,0.00
2019-02-23T05:47:15.097Z,0.00
2019-02-23T05:48:15.087Z,0.00
2019-02-23T05:49:15.077Z,0.00
2019-02-23T05:50:15.067Z,0.00
2019-02-23T05:51:15.057Z,0.00
2019-02-23T05:52:15.056Z,0.00
2019-02-23T05:53:15.035Z,0.00
2019-02-23T05:54:15.027Z,0.00
2019-02-23T05:55:15.014Z,0.00
2019-02-23T05:56:16.348Z,0.00
2019-02-23T05:57:14.993Z,0.00
2019-02-23T05:58:14.995Z,0.00
2019-02-23T05:59:15.006Z,0.00
2019-02-23T06:00:14.961Z,0.00
2019-02-23T06:01:14.950Z,0.00
2019-02-23T06:02:14.939Z,0.00
2019-02-23T06:03:14.934Z,0.00
2019-02-23T06:04:14.940Z,0.00
2019-02-23T06:05:14.919Z,0.00
2019-02-23T06:06:14.899Z,0.00
2019-02-23T06:07:14.903Z,0.00
2019-02-23T06:08:14.877Z,0.00
2019-02-23T06:09:14.869Z,0.00
2019-02-23T06:10:14.871Z,0.00
2019-02-23T06:11:14.844Z,0.00
2019-02-23T06:12:14.848Z,0.00
2019-02-23T06:13:14.824Z,0.00
2019-02-23T06:14:14.813Z,0.00
2019-02-23T06:15:14.807Z,0.00
2019-02-23T06:16:14.809Z,0.00
2019-02-23T06:17:14.784Z,0.00
2019-02-23T06:18:14.768Z,0.00
2019-02-23T06:19:14.761Z,0.00
2019-02-23T06:20:14.749Z,0.00
2019-02-23T06:21:14.736Z,0.00
2019-02-23T06:22:14.737Z,0.00
2019-02-23T06:23:14.714Z,0.00
2019-02-23T06:24:14.704Z,5.62
2019-02-23T06:25:14.696Z,5.62
2019-02-23T06:26:14.685Z,5.62
2019-02-23T06:27:14.671Z,5.62
2019-02-23T06:28:14.676Z,5.62
2019-02-23T06:29:14.650Z,5.62
2019-02-23T06:30:14.640Z,5.62
2019-02-23T06:31:14.628Z,11.25
2019-02-23T06:32:14.618Z,11.25
2019-02-23T06:33:14.606Z,11.25
2019-02-23T06:34:16.421Z,11.25
2019-02-23T06:35:14.585Z,16.88
2019-02-23T06:36:14.574Z,16.88
2019-02-23T06:37:14.564Z,16.88
2019-02-23T06:38:14.553Z,22.50
2019-02-23T06:39:14.551Z,22.50
2019-02-23T06:40:14.543Z,28.12
2019-02-23T06:41:14.521Z,28.12
2019-02-23T06:42:14.512Z,33.75
2019-02-23T06:43:14.498Z,33.75
2019-02-23T06:44:14.574Z,39.38
2019-02-23T06:45:14.478Z,39.38
2019-02-23T06:46:14.478Z,39.38
2019-02-23T06:47:14.457Z,45.00
2019-02-23T06:48:14.446Z,45.00
2019-02-23T06:49:14.435Z,50.62
2019-02-23T06:50:14.424Z,50.62
2019-02-23T06:51:14.413Z,56.25
2019-02-23T06:52:14.422Z,56.25
2019-02-23T06:53:14.393Z,56.25
2019-02-23T06:54:14.381Z,61.88
2019-02-23T06:55:14.372Z,61.88
2019-02-23T06:56:14.360Z,61.88
2019-02-23T06:57:14.354Z,61.88
2019-02-23T06:58:14.356Z,67.50
2019-02-23T06:59:14.328Z,67.50
2019-02-23T07:00:14.317Z,73.12
2019-02-23T07:01:14.309Z,73.12
2019-02-23T07:02:14.295Z,78.75
2019-02-23T07:03:14.289Z,78.75
2019-02-23T07:04:14.291Z,84.38
2019-02-23T07:05:14.271Z,84.38
2019-02-23T07:06:14.254Z,90.00
2019-02-23T07:07:14.243Z,95.62
2019-02-23T07:08:14.234Z,95.62
2019-02-23T07:09:14.241Z,101.25
2019-02-23T07:10:14.225Z,106.88
2019-02-23T07:11:14.199Z,106.88
2019-02-23T07:12:14.200Z,106.88
2019-02-23T07:13:14.177Z,112.50
2019-02-23T07:14:14.166Z,118.12
2019-02-23T07:15:14.156Z,118.12
2019-02-23T07:16:14.162Z,123.75
2019-02-23T07:17:14.190Z,129.38
2019-02-23T07:18:14.123Z,135.00
2019-02-23T07:19:14.112Z,146.25
2019-02-23T07:20:14.103Z,151.88
2019-02-23T07:21:14.091Z,168.75
2019-02-23T07:22:15.823Z,185.62
2019-02-23T07:23:14.072Z,208.12
2019-02-23T07:24:14.058Z,219.38
2019-02-23T07:25:14.048Z,241.88
2019-02-23T07:26:14.037Z,270.00
2019-02-23T07:27:14.034Z,309.38
2019-02-23T07:28:14.027Z,348.75
2019-02-23T07:29:14.040Z,382.50
2019-02-23T07:30:14.018Z,410.62
2019-02-23T07:31:13.984Z,455.62
2019-02-23T07:32:13.974Z,455.62
2019-02-23T07:33:13.963Z,478.12
2019-02-23T07:34:13.970Z,472.50
2019-02-23T07:35:13.942Z,444.38
2019-02-23T07:36:13.931Z,427.50
2019-02-23T07:37:13.922Z,399.38
2019-02-23T07:38:13.910Z,376.88
2019-02-23T07:39:13.903Z,365.62
2019-02-23T07:40:13.902Z,382.50
2019-02-23T07:41:13.880Z,399.38
2019-02-23T07:42:13.868Z,427.50
2019-02-23T07:43:13.857Z,444.38
2019-02-23T07:44:13.857Z,455.62
2019-02-23T07:45:13.835Z,444.38
2019-02-23T07:46:13.840Z,455.62
2019-02-23T07:47:13.813Z,461.25
2019-02-23T07:48:13.802Z,461.25
2019-02-23T07:49:13.792Z,472.50
2019-02-23T07:50:13.780Z,478.12
2019-02-23T07:51:13.770Z,478.12
2019-02-23T07:52:13.776Z,472.50
2019-02-23T07:53:13.747Z,421.88
2019-02-23T07:54:13.740Z,495.00
2019-02-23T07:55:13.729Z,478.12
2019-02-23T07:56:13.717Z,450.00
2019-02-23T07:57:13.777Z,427.50
2019-02-23T07:58:13.706Z,427.50
2019-02-23T07:59:13.696Z,416.25
2019-02-23T08:00:13.675Z,421.88
2019-02-23T08:01:13.664Z,433.12
2019-02-23T08:02:13.653Z,438.75
2019-02-23T08:03:13.644Z,466.88
2019-02-23T08:04:13.651Z,523.12
2019-02-23T08:05:13.623Z,534.38
2019-02-23T08:06:13.612Z,551.25
2019-02-23T08:07:13.600Z,478.12
2019-02-23T08:08:13.591Z,534.38
2019-02-23T08:09:13.582Z,545.62
2019-02-23T08:10:13.593Z,562.50
2019-02-23T08:11:13.557Z,556.88
2019-02-23T08:12:13.546Z,556.88
2019-02-23T08:13:13.538Z,573.75
2019-02-23T08:14:13.524Z,596.25
2019-02-23T08:15:13.514Z,635.62
2019-02-23T08:16:13.516Z,635.62
2019-02-23T08:17:13.496Z,641.25
2019-02-23T08:18:13.485Z,630.00
2019-02-23T08:19:13.471Z,573.75
2019-02-23T08:20:13.465Z,652.50
2019-02-23T08:21:13.450Z,697.50
2019-02-23T08:22:13.456Z,720.00
2019-02-23T08:23:13.429Z,708.75
2019-02-23T08:24:13.419Z,714.38
2019-02-23T08:25:13.408Z,691.88
2019-02-23T08:26:13.398Z,720.00
2019-02-23T08:27:13.386Z,607.50
2019-02-23T08:28:13.387Z,635.62
2019-02-23T08:29:13.366Z,787.50
2019-02-23T08:30:13.358Z,922.50
2019-02-23T08:31:13.565Z,990.00
2019-02-23T08:32:13.333Z,1006.88
2019-02-23T08:33:13.323Z,1040.62
2019-02-23T08:34:13.322Z,1096.88
2019-02-23T08:35:13.300Z,1203.75
2019-02-23T08:36:13.295Z,1186.88
2019-02-23T08:37:13.278Z,1068.75
2019-02-23T08:38:13.267Z,866.25
2019-02-23T08:39:13.259Z,849.38
2019-02-23T08:40:13.261Z,888.75
2019-02-23T08:41:13.236Z,911.25
2019-02-23T08:42:13.225Z,933.75
2019-02-23T08:43:13.214Z,1012.50
2019-02-23T08:44:13.210Z,1001.25
2019-02-23T08:45:13.194Z,984.38
2019-02-23T08:46:13.195Z,961.88
2019-02-23T08:47:13.171Z,973.12
2019-02-23T08:48:13.162Z,973.12
2019-02-23T08:49:13.150Z,1012.50
2019-02-23T08:50:13.141Z,967.50
2019-02-23T08:51:13.127Z,900.00
2019-02-23T08:52:13.133Z,905.62
2019-02-23T08:53:13.256Z,950.62
2019-02-23T08:54:13.095Z,933.75
2019-02-23T08:55:13.086Z,1119.38
2019-02-23T08:56:13.076Z,1046.25
2019-02-23T08:57:13.064Z,1192.50
2019-02-23T08:58:13.067Z,1209.38
2019-02-23T08:59:13.040Z,1231.88
2019-02-23T09:00:13.032Z,1231.88
2019-02-23T09:01:13.023Z,1282.50
2019-02-23T09:02:13.010Z,1305.00
2019-02-23T09:03:12.999Z,1321.88
2019-02-23T09:04:12.997Z,1350.00
2019-02-23T09:05:12.979Z,1344.38
2019-02-23T09:06:12.967Z,1451.25
2019-02-23T09:07:12.956Z,1462.50
2019-02-23T09:08:12.942Z,1462.50
2019-02-23T09:09:12.935Z,1428.75
2019-02-23T09:10:12.951Z,1490.62
2019-02-23T09:11:12.910Z,1586.25
2019-02-23T09:12:12.900Z,1614.38
2019-02-23T09:13:12.891Z,1608.75
2019-02-23T09:14:12.881Z,1591.88
2019-02-23T09:15:12.868Z,1603.12
2019-02-23T09:16:12.870Z,1586.25
2019-02-23T09:17:12.850Z,1417.50
2019-02-23T09:18:12.835Z,1575.00
2019-02-23T09:19:12.824Z,1513.12
2019-02-23T09:20:12.818Z,1479.38
2019-02-23T09:21:12.803Z,1462.50
2019-02-23T09:22:12.807Z,1355.62
2019-02-23T09:23:12.781Z,1198.12
2019-02-23T09:24:12.770Z,1316.25
2019-02-23T09:25:12.758Z,1366.88
2019-02-23T09:26:12.757Z,1141.88
2019-02-23T09:27:12.736Z,1068.75
2019-02-23T09:28:12.739Z,1243.12
2019-02-23T09:29:12.714Z,1372.50
2019-02-23T09:30:12.703Z,1355.62
2019-02-23T09:31:12.693Z,1192.50
2019-02-23T09:32:12.682Z,1153.12
2019-02-23T09:33:12.675Z,1327.50
2019-02-23T09:34:12.669Z,1518.75
2019-02-23T09:35:12.696Z,1614.38
2019-02-23T09:36:12.637Z,1496.25
2019-02-23T09:37:12.627Z,1440.00
2019-02-23T09:38:12.615Z,1305.00
2019-02-23T09:39:12.607Z,1406.25
2019-02-23T09:40:12.606Z,1310.62
2019-02-23T09:41:12.584Z,1215.00
2019-02-23T09:42:12.582Z,1186.88
2019-02-23T09:43:12.560Z,1158.75
2019-02-23T09:44:12.554Z,1181.25
2019-02-23T09:45:12.538Z,1091.25
2019-02-23T09:46:12.543Z,1006.88
2019-02-23T09:47:12.516Z,990.00
2019-02-23T09:48:12.510Z,838.12
2019-02-23T09:49:12.496Z,618.75
2019-02-23T09:50:12.488Z,573.75
2019-02-23T09:51:12.472Z,568.12
2019-02-23T09:52:12.479Z,523.12
2019-02-23T09:53:12.450Z,517.50
2019-02-23T09:54:12.440Z,506.25
2019-02-23T09:55:12.430Z,495.00
2019-02-23T09:56:12.418Z,478.12
2019-02-23T09:57:12.407Z,461.25
2019-02-23T09:58:12.407Z,461.25
2019-02-23T09:59:12.386Z,444.38
2019-02-23T10:00:12.377Z,438.75
2019-02-23T10:01:12.363Z,444.38
2019-02-23T10:02:12.355Z,450.00
2019-02-23T10:03:12.342Z,438.75
2019-02-23T10:04:12.352Z,427.50
2019-02-23T10:05:12.319Z,421.88
2019-02-23T10:06:12.308Z,416.25
2019-02-23T10:07:12.298Z,410.62
2019-02-23T10:08:12.288Z,399.38
2019-02-23T10:09:12.275Z,399.38
2019-02-23T10:10:12.276Z,388.12
2019-02-23T10:11:12.261Z,382.50
2019-02-23T10:12:12.242Z,371.25
2019-02-23T10:13:12.232Z,365.62
2019-02-23T10:14:12.220Z,365.62
2019-02-23T10:15:12.216Z,360.00
2019-02-23T10:16:12.212Z,348.75
2019-02-23T10:17:12.188Z,348.75
2019-02-23T10:18:12.177Z,343.12
2019-02-23T10:19:12.166Z,343.12
2019-02-23T10:20:12.155Z,337.50
2019-02-23T10:21:12.145Z,348.75
2019-02-23T10:22:12.151Z,354.38
2019-02-23T10:23:21.607Z,348.75
2019-02-23T10:24:13.111Z,343.12
2019-02-23T10:25:12.102Z,337.50
2019-02-23T10:26:12.095Z,337.50
2019-02-23T10:27:12.080Z,337.50
2019-02-23T10:28:12.080Z,331.88
2019-02-23T10:29:12.060Z,320.62
2019-02-23T10:30:12.048Z,315.00
2019-02-23T10:31:12.038Z,309.38
2019-02-23T10:32:12.027Z,309.38
2019-02-23T10:33:12.016Z,303.75
2019-02-23T10:34:12.024Z,303.75
2019-02-23T10:35:11.997Z,298.12
2019-02-23T10:36:11.985Z,298.12
2019-02-23T10:37:11.974Z,298.12
2019-02-23T10:38:11.963Z,292.50
2019-02-23T10:39:11.952Z,286.88
2019-02-23T10:40:11.952Z,275.62
2019-02-23T10:41:11.933Z,275.62
2019-02-23T10:42:11.924Z,281.25
2019-02-23T10:43:11.910Z,281.25
2019-02-23T10:44:11.905Z,281.25
2019-02-23T10:45:11.887Z,281.25
2019-02-23T10:46:12.206Z,281.25
2019-02-23T10:47:11.868Z,281.25
2019-02-23T10:48:11.854Z,281.25
2019-02-23T10:49:11.845Z,281.25
2019-02-23T10:50:11.832Z,281.25
2019-02-23T10:51:11.823Z,275.62
2019-02-23T10:52:11.830Z,281.25
2019-02-23T10:53:11.801Z,275.62
2019-02-23T10:54:11.789Z,264.38
2019-02-23T10:55:11.783Z,258.75
2019-02-23T10:56:11.767Z,258.75
2019-02-23T10:57:11.757Z,264.38
2019-02-23T10:58:11.756Z,258.75
2019-02-23T10:59:11.738Z,264.38
2019-02-23T11:00:11.727Z,258.75
2019-02-23T11:01:11.714Z,258.75
2019-02-23T11:02:11.706Z,258.75
2019-02-23T11:03:11.693Z,253.12
2019-02-23T11:04:11.695Z,253.12
2019-02-23T11:05:11.680Z,253.12
2019-02-23T11:06:11.660Z,258.75
2019-02-23T11:07:11.657Z,258.75
2019-02-23T11:08:11.638Z,258.75
2019-02-23T11:09:11.628Z,264.38
2019-02-23T11:10:11.630Z,264.38
2019-02-23T11:11:11.605Z,264.38
2019-02-23T11:12:11.595Z,264.38
2019-02-23T11:13:11.589Z,264.38
2019-02-23T11:14:11.573Z,264.38
2019-02-23T11:15:11.564Z,264.38
2019-02-23T11:16:11.562Z,264.38
2019-02-23T11:17:11.541Z,264.38
2019-02-23T11:18:11.530Z,264.38
2019-02-23T11:19:11.518Z,264.38
2019-02-23T11:20:11.509Z,264.38
2019-02-23T11:21:11.497Z,264.38
2019-02-23T11:22:11.511Z,258.75
2019-02-23T11:23:11.474Z,258.75
2019-02-23T11:24:11.463Z,258.75
2019-02-23T11:25:11.453Z,258.75
2019-02-23T11:26:11.444Z,258.75
2019-02-23T11:27:11.430Z,253.12
2019-02-23T11:28:11.448Z,253.12
2019-02-23T11:29:11.415Z,253.12
2019-02-23T11:30:11.399Z,253.12
2019-02-23T11:31:11.401Z,253.12
2019-02-23T11:32:11.376Z,253.12
2019-02-23T11:33:11.377Z,258.75
2019-02-23T11:34:11.371Z,258.75
2019-02-23T11:35:11.343Z,258.75
2019-02-23T11:36:11.331Z,258.75
2019-02-23T11:37:11.321Z,253.12
2019-02-23T11:38:11.311Z,253.12
2019-02-23T11:39:11.298Z,247.50
2019-02-23T11:40:11.300Z,241.88
2019-02-23T11:41:11.280Z,241.88
2019-02-23T11:42:11.275Z,236.25
2019-02-23T11:43:11.262Z,236.25
2019-02-23T11:44:11.250Z,230.62
2019-02-23T11:45:11.240Z,230.62
2019-02-23T11:46:11.232Z,230.62
2019-02-23T11:47:11.211Z,225.00
2019-02-23T11:48:11.201Z,225.00
2019-02-23T11:49:11.190Z,225.00
2019-02-23T11:50:11.185Z,225.00
2019-02-23T11:51:11.178Z,225.00
2019-02-23T11:52:11.175Z,225.00
2019-02-23T11:53:11.148Z,230.62
2019-02-23T11:54:11.136Z,230.62
2019-02-23T11:55:11.130Z,230.62
2019-02-23T11:56:11.116Z,236.25
2019-02-23T11:57:11.104Z,236.25
2019-02-23T11:58:11.103Z,236.25
2019-02-23T11:59:11.082Z,236.25
2019-02-23T12:00:11.073Z,241.88
2019-02-23T12:01:11.065Z,241.88
2019-02-23T12:02:11.049Z,241.88
2019-02-23T12:03:11.039Z,241.88
2019-02-23T12:04:11.037Z,241.88
2019-02-23T12:05:11.017Z,241.88
2019-02-23T12:06:11.006Z,241.88
2019-02-23T12:07:11.001Z,241.88
2019-02-23T12:08:10.984Z,241.88
2019-02-23T12:09:10.975Z,241.88
2019-02-23T12:10:10.976Z,241.88
2019-02-23T12:11:10.953Z,236.25
2019-02-23T12:12:10.941Z,236.25
2019-02-23T12:13:10.939Z,236.25
2019-02-23T12:14:10.921Z,236.25
2019-02-23T12:15:10.910Z,241.88
2019-02-23T12:16:10.908Z,241.88
2019-02-23T12:17:10.890Z,241.88
2019-02-23T12:18:10.877Z,241.88
2019-02-23T12:19:10.881Z,241.88
2019-02-23T12:20:10.856Z,247.50
2019-02-23T12:21:10.845Z,247.50
2019-02-23T12:22:12.573Z,241.88
2019-02-23T12:23:10.824Z,241.88
2019-02-23T12:24:10.813Z,241.88
2019-02-23T12:25:13.040Z,241.88
2019-02-23T12:26:11.789Z,241.88
2019-02-23T12:27:10.781Z,241.88
2019-02-23T12:28:10.783Z,236.25
2019-02-23T12:29:10.758Z,241.88
2019-02-23T12:30:10.749Z,241.88
2019-02-23T12:31:10.738Z,236.25
2019-02-23T12:32:10.727Z,236.25
2019-02-23T12:33:10.715Z,236.25
2019-02-23T12:34:10.717Z,236.25
2019-02-23T12:35:10.694Z,236.25
2019-02-23T12:36:10.682Z,236.25
2019-02-23T12:37:10.674Z,236.25
2019-02-23T12:38:10.665Z,236.25
2019-02-23T12:39:10.651Z,230.62
2019-02-23T12:40:10.662Z,230.62
2019-02-23T12:41:10.632Z,230.62
2019-02-23T12:42:10.618Z,230.62
2019-02-23T12:43:10.611Z,230.62
2019-02-23T12:44:10.597Z,230.62
2019-02-23T12:45:10.585Z,225.00
2019-02-23T12:46:10.584Z,225.00
2019-02-23T12:47:10.564Z,225.00
2019-02-23T12:48:10.553Z,230.62
2019-02-23T12:49:10.544Z,219.38
2019-02-23T12:50:10.536Z,219.38
2019-02-23T12:51:10.530Z,219.38
2019-02-23T12:52:10.539Z,213.75